createdAt,value
2023-04-09T00:01:18.101Z,15.75
2023-04-09T00:03:44.649Z,14.25
2023-04-09T00:06:11.612Z,15.57
2023-04-09T00:08:38.006Z,14.48
2023-04-09T00:11:04.798Z,14.95
2023-04-09T00:13:39.201Z,14.20
2023-04-09T00:16:07.454Z,15.55
2023-04-09T00:18:33.998Z,15.43
2023-04-09T00:21:00.556Z,13.38
2023-04-09T00:23:26.997Z,17.05
2023-04-09T00:25:53.455Z,16.27
2023-04-09T00:28:20.061Z,16.20
2023-04-09T00:30:46.522Z,13.43
2023-04-09T00:33:12.984Z,15.90
2023-04-09T00:35:39.414Z,13.43
2023-04-09T00:38:05.857Z,17.92
2023-04-09T00:40:32.564Z,17.65
2023-04-09T00:42:58.994Z,14.15
2023-04-09T00:45:25.475Z,16.13
2023-04-09T00:47:52.233Z,14.95
2023-04-09T00:50:19.663Z,14.80
2023-04-09T00:52:46.078Z,14.82
2023-04-09T00:55:13.457Z,14.63
2023-04-09T00:57:39.872Z,16.15
2023-04-09T01:00:07.789Z,14.57
2023-04-09T01:02:34.693Z,17.00
2023-04-09T01:05:01.500Z,16.40
2023-04-09T01:07:54.244Z,14.02
2023-04-09T01:10:42.412Z,14.88
2023-04-09T01:13:12.535Z,15.13
2023-04-09T01:15:52.158Z,16.38
2023-04-09T01:18:29.468Z,17.27
2023-04-09T01:21:05.374Z,15.73
2023-04-09T01:24:05.651Z,17.10
2023-04-09T01:26:55.495Z,18.20
2023-04-09T01:29:23.932Z,18.13
2023-04-09T01:31:51.099Z,14.68
2023-04-09T01:34:19.379Z,15.25
2023-04-09T01:36:53.154Z,16.75
2023-04-09T01:39:19.975Z,17.00
2023-04-09T01:41:47.045Z,18.60
2023-04-09T01:44:14.616Z,18.45
2023-04-09T01:46:41.799Z,18.58
2023-04-09T01:49:10.884Z,16.55
2023-04-09T01:51:38.071Z,17.50
2023-04-09T01:54:05.063Z,22.48
2023-04-09T01:56:48.207Z,20.05
2023-04-09T01:59:14.958Z,17.98
2023-04-09T02:01:53.320Z,20.08
2023-04-09T02:04:40.399Z,19.30
2023-04-09T02:07:11.021Z,16.73
2023-04-09T02:09:40.569Z,19.38
2023-04-09T02:12:12.178Z,16.92
2023-04-09T02:14:40.124Z,18.25
2023-04-09T02:17:06.681Z,22.75
2023-04-09T02:19:47.713Z,18.90
2023-04-09T02:22:16.104Z,20.25
2023-04-09T02:24:42.687Z,19.90
2023-04-09T02:27:09.134Z,20.10
2023-04-09T02:29:35.635Z,18.83
2023-04-09T02:32:02.218Z,17.90
2023-04-09T02:34:28.680Z,21.48
2023-04-09T02:36:55.085Z,21.17
2023-04-09T02:39:21.513Z,20.80
2023-04-09T02:41:47.905Z,19.52
2023-04-09T02:44:14.374Z,21.23
2023-04-09T02:46:41.427Z,20.73
2023-04-09T02:49:08.138Z,19.52
2023-04-09T02:51:36.014Z,20.65
2023-04-09T02:54:03.546Z,19.63
2023-04-09T02:56:30.248Z,24.02
2023-04-09T02:58:56.656Z,23.80
2023-04-09T03:01:23.135Z,19.77
2023-04-09T03:03:49.899Z,21.23
2023-04-09T03:06:16.657Z,25.88
2023-04-09T03:08:43.080Z,27.83
2023-04-09T03:11:09.531Z,23.20
2023-04-09T03:13:35.974Z,22.27
2023-04-09T03:16:02.428Z,25.73
2023-04-09T03:18:28.839Z,23.45
2023-04-09T03:20:55.462Z,20.48
2023-04-09T03:23:21.886Z,30.15
2023-04-09T03:25:48.315Z,25.20
2023-04-09T03:28:14.828Z,22.05
2023-04-09T03:30:41.199Z,23.45
2023-04-09T03:33:07.693Z,24.25
2023-04-09T03:35:34.103Z,25.90
2023-04-09T03:38:00.515Z,25.50
2023-04-09T03:40:26.911Z,23.92
2023-04-09T03:42:53.292Z,27.17
2023-04-09T03:45:19.729Z,23.48
2023-04-09T03:47:46.173Z,22.83
2023-04-09T03:50:12.601Z,24.23
2023-04-09T03:52:38.994Z,23.63
2023-04-09T03:55:05.907Z,21.67
2023-04-09T03:57:32.434Z,22.15
2023-04-09T03:59:58.842Z,26.17
2023-04-09T04:02:27.080Z,22.83
2023-04-09T04:04:53.752Z,26.63
2023-04-09T04:07:20.152Z,23.08
2023-04-09T04:09:46.647Z,22.00
2023-04-09T04:12:13.071Z,26.45
2023-04-09T04:14:39.471Z,24.83
2023-04-09T04:17:05.982Z,21.42
2023-04-09T04:19:32.438Z,22.85
2023-04-09T04:21:58.878Z,23.13
2023-04-09T04:24:25.496Z,22.90
2023-04-09T04:26:51.896Z,20.80
2023-04-09T04:29:18.460Z,24.27
2023-04-09T04:31:44.937Z,21.85
2023-04-09T04:34:11.365Z,22.75
2023-04-09T04:36:37.911Z,25.05
2023-04-09T04:39:04.403Z,23.67
2023-04-09T04:41:30.903Z,23.58
2023-04-09T04:43:57.460Z,21.13
2023-04-09T04:46:23.868Z,21.85
2023-04-09T04:48:50.431Z,22.90
2023-04-09T04:51:17.102Z,21.95
2023-04-09T04:53:43.552Z,28.02
2023-04-09T04:56:16.043Z,24.98
2023-04-09T04:58:42.851Z,25.90
2023-04-09T05:01:09.292Z,23.27
2023-04-09T05:03:35.950Z,21.50
2023-04-09T05:06:02.932Z,22.13
2023-04-09T05:08:29.451Z,20.52
2023-04-09T05:10:56.300Z,24.42
2023-04-09T05:13:23.860Z,21.58
2023-04-09T05:15:50.803Z,22.60
2023-04-09T05:18:17.258Z,22.60
2023-04-09T05:20:43.702Z,23.27
2023-04-09T05:23:10.339Z,26.92
2023-04-09T05:25:36.797Z,23.10
2023-04-09T05:28:06.267Z,24.73
2023-04-09T05:30:32.725Z,22.52
2023-04-09T05:32:59.434Z,22.10
2023-04-09T05:35:25.880Z,20.92
2023-04-09T05:37:52.288Z,22.50
2023-04-09T05:40:18.746Z,26.25
2023-04-09T05:42:45.250Z,21.02
2023-04-09T05:45:11.700Z,23.63
2023-04-09T05:47:38.133Z,27.40
2023-04-09T05:50:05.656Z,21.23
2023-04-09T05:52:32.107Z,26.33
2023-04-09T05:54:58.668Z,24.83
2023-04-09T05:57:25.213Z,19.85
2023-04-09T05:59:51.612Z,25.60
2023-04-09T06:02:18.130Z,22.23
2023-04-09T06:04:44.615Z,22.88
2023-04-09T06:07:11.144Z,21.80
2023-04-09T06:09:38.188Z,22.23
2023-04-09T06:12:04.727Z,25.40
2023-04-09T06:14:33.073Z,20.77
2023-04-09T06:16:59.839Z,22.55
2023-04-09T06:19:26.315Z,19.85
2023-04-09T06:21:52.865Z,20.52
2023-04-09T06:24:19.453Z,20.65
2023-04-09T06:26:46.185Z,24.48
2023-04-09T06:29:12.668Z,49.40
2023-04-09T06:31:39.429Z,17.48
2023-04-09T06:34:05.989Z,17.95
2023-04-09T06:36:33.292Z,17.38
2023-04-09T06:38:59.710Z,19.70
2023-04-09T06:41:29.245Z,20.77
2023-04-09T06:43:55.663Z,18.13
2023-04-09T06:46:22.268Z,16.48
2023-04-09T06:48:48.812Z,17.15
2023-04-09T06:51:15.476Z,16.85
2023-04-09T06:53:42.463Z,17.50
2023-04-09T06:56:08.972Z,18.95
2023-04-09T06:58:35.499Z,15.43
2023-04-09T07:01:02.053Z,18.98
2023-04-09T07:03:29.538Z,17.95
2023-04-09T07:05:57.530Z,17.23
2023-04-09T07:08:24.017Z,21.67
2023-04-09T07:10:50.424Z,21.85
2023-04-09T07:13:17.314Z,21.63
2023-04-09T07:15:43.878Z,22.00
2023-04-09T07:18:10.642Z,21.25
2023-04-09T07:20:37.100Z,21.40
2023-04-09T07:23:03.545Z,21.98
2023-04-09T07:25:31.103Z,23.33
2023-04-09T07:27:57.534Z,23.02
2023-04-09T07:30:24.053Z,24.65
2023-04-09T07:32:50.956Z,21.08
2023-04-09T07:35:18.864Z,22.25
2023-04-09T07:37:45.397Z,19.98
2023-04-09T07:40:12.111Z,18.58
2023-04-09T07:42:39.396Z,18.58
2023-04-09T07:45:06.924Z,23.27
2023-04-09T07:47:33.494Z,18.63
2023-04-09T07:49:59.956Z,17.60
2023-04-09T07:52:26.348Z,17.65
2023-04-09T07:54:52.813Z,16.98
2023-04-09T07:57:19.270Z,18.88
2023-04-09T07:59:46.653Z,17.55
2023-04-09T08:02:15.376Z,15.35
2023-04-09T08:04:42.375Z,14.52
2023-04-09T08:07:09.192Z,15.13
2023-04-09T08:09:35.808Z,13.88
2023-04-09T08:12:02.326Z,14.32
2023-04-09T08:14:28.981Z,13.45
2023-04-09T08:16:55.570Z,14.60
2023-04-09T08:19:22.108Z,14.38
2023-04-09T08:21:49.522Z,14.00
2023-04-09T08:24:16.062Z,13.60
2023-04-09T08:26:42.932Z,11.77
2023-04-09T08:29:12.268Z,13.18
2023-04-09T08:31:39.244Z,12.75
2023-04-09T08:34:06.491Z,14.73
2023-04-09T08:36:34.604Z,15.50
2023-04-09T08:39:01.758Z,13.30
2023-04-09T08:41:29.401Z,12.48
2023-04-09T08:43:58.796Z,11.80
2023-04-09T08:46:29.005Z,13.15
2023-04-09T08:48:56.099Z,13.55
2023-04-09T08:51:24.214Z,12.93
2023-04-09T08:53:59.640Z,13.88
2023-04-09T08:56:27.785Z,13.25
2023-04-09T08:58:56.162Z,12.88
2023-04-09T09:01:28.103Z,13.13
2023-04-09T09:03:56.771Z,13.68
2023-04-09T09:06:27.014Z,11.15
2023-04-09T09:09:22.575Z,13.10
2023-04-09T09:11:52.311Z,15.57
2023-04-09T09:14:19.774Z,11.85
2023-04-09T09:16:55.416Z,12.85
2023-04-09T09:19:24.913Z,12.30
2023-04-09T09:21:58.410Z,16.27
2023-04-09T09:24:24.855Z,12.15
2023-04-09T09:26:54.436Z,11.07
2023-04-09T09:29:21.251Z,12.02
2023-04-09T09:31:49.634Z,15.25
2023-04-09T09:34:17.400Z,11.38
2023-04-09T09:36:44.654Z,12.32
2023-04-09T09:39:13.008Z,18.50
2023-04-09T09:41:41.146Z,13.35
2023-04-09T09:44:09.035Z,12.30
2023-04-09T09:46:42.667Z,11.75
2023-04-09T09:49:09.549Z,12.38
2023-04-09T09:51:37.612Z,15.88
2023-04-09T09:54:06.959Z,12.10
2023-04-09T09:56:39.307Z,11.20
2023-04-09T09:59:23.232Z,12.48
2023-04-09T10:02:04.322Z,11.95
2023-04-09T10:07:04.361Z,10.00
2023-04-09T10:09:31.307Z,12.60
2023-04-09T10:12:00.168Z,10.52
2023-04-09T10:14:28.855Z,10.70
2023-04-09T10:16:55.455Z,8.40
2023-04-09T10:19:22.288Z,13.25
2023-04-09T10:22:13.677Z,10.95
2023-04-09T10:27:16.450Z,9.18
2023-04-09T10:29:49.080Z,9.20
2023-04-09T10:32:26.414Z,10.35
2023-04-09T10:34:57.112Z,9.90
2023-04-09T10:37:25.601Z,9.32
2023-04-09T10:39:52.895Z,10.15
2023-04-09T10:42:32.609Z,8.77
2023-04-09T10:45:39.515Z,9.45
2023-04-09T10:48:06.089Z,9.82
2023-04-09T10:50:32.989Z,11.05
2023-04-09T10:53:02.586Z,7.68
2023-04-09T10:55:42.357Z,8.52
2023-04-09T10:58:12.737Z,7.85
2023-04-09T11:00:42.755Z,8.85
2023-04-09T11:03:09.404Z,11.27
2023-04-09T11:05:40.513Z,9.55
2023-04-09T11:08:09.665Z,9.55
2023-04-09T11:10:37.559Z,8.30
2023-04-09T11:13:04.752Z,8.07
2023-04-09T11:15:32.678Z,7.93
2023-04-09T11:17:59.223Z,11.00
2023-04-09T11:20:29.598Z,10.02
2023-04-09T11:22:56.399Z,8.35
2023-04-09T11:25:26.872Z,8.60
2023-04-09T11:27:54.440Z,8.63
2023-04-09T11:30:21.655Z,7.07
2023-04-09T11:32:49.700Z,7.93
2023-04-09T11:35:18.532Z,8.05
2023-04-09T11:37:50.243Z,11.32
2023-04-09T11:40:21.936Z,10.00
2023-04-09T11:42:51.134Z,8.63
2023-04-09T11:45:21.022Z,12.57
2023-04-09T11:47:49.036Z,8.93
2023-04-09T11:50:16.631Z,8.45
2023-04-09T11:52:45.136Z,8.10
2023-04-09T11:55:12.530Z,9.93
2023-04-09T11:57:48.486Z,11.43
2023-04-09T12:00:17.526Z,9.32
2023-04-09T12:02:49.758Z,8.02
2023-04-09T12:05:28.877Z,10.48
2023-04-09T12:08:01.307Z,7.97
2023-04-09T12:10:32.875Z,8.40
2023-04-09T12:13:07.602Z,8.25
2023-04-09T12:15:37.129Z,8.77
2023-04-09T12:18:04.545Z,7.65
2023-04-09T12:20:37.508Z,9.70
2023-04-09T12:23:06.211Z,8.82
2023-04-09T12:25:35.772Z,6.78
2023-04-09T12:28:03.912Z,9.50
2023-04-09T12:30:30.438Z,9.88
2023-04-09T12:32:57.307Z,7.43
2023-04-09T12:35:24.284Z,9.13
2023-04-09T12:37:51.807Z,8.95
2023-04-09T12:40:20.385Z,8.25
2023-04-09T12:42:47.534Z,9.65
2023-04-09T12:45:16.862Z,9.25
2023-04-09T12:47:44.390Z,8.10
2023-04-09T12:50:12.527Z,7.38
2023-04-09T12:52:39.921Z,6.35
2023-04-09T12:55:07.619Z,7.25
2023-04-09T12:57:34.418Z,7.45
2023-04-09T13:00:01.296Z,7.80
2023-04-09T13:02:28.127Z,9.38
2023-04-09T13:04:54.936Z,7.85
2023-04-09T13:07:22.946Z,8.15
2023-04-09T13:09:52.556Z,10.32
2023-04-09T13:12:21.690Z,8.35
2023-04-09T13:14:49.130Z,10.73
2023-04-09T13:17:19.053Z,8.73
2023-04-09T13:19:46.239Z,7.22
2023-04-09T13:22:13.151Z,7.82
2023-04-09T13:24:39.810Z,9.00
2023-04-09T13:27:09.605Z,8.88
2023-04-09T13:29:36.853Z,9.25
2023-04-09T13:32:07.102Z,9.57
2023-04-09T13:34:35.075Z,8.57
2023-04-09T13:37:04.399Z,7.72
2023-04-09T13:39:31.368Z,10.68
2023-04-09T13:41:57.923Z,9.30
2023-04-09T13:44:25.224Z,10.38
2023-04-09T13:46:51.707Z,7.57
2023-04-09T13:49:19.351Z,9.23
2023-04-09T13:51:46.150Z,7.40
2023-04-09T13:54:13.236Z,9.63
2023-04-09T13:56:39.775Z,6.75
2023-04-09T13:59:06.505Z,6.82
2023-04-09T14:01:33.682Z,8.48
2023-04-09T14:04:00.325Z,7.25
2023-04-09T14:06:27.154Z,7.10
2023-04-09T14:08:53.997Z,7.45
2023-04-09T14:11:20.858Z,8.93
2023-04-09T14:13:48.440Z,7.85
2023-04-09T14:16:15.081Z,7.03
2023-04-09T14:18:41.675Z,5.88
2023-04-09T14:21:10.248Z,6.93
2023-04-09T14:23:37.485Z,8.02
2023-04-09T14:26:05.554Z,7.13
2023-04-09T14:28:32.134Z,10.13
2023-04-09T14:30:59.527Z,6.50
2023-04-09T14:33:26.700Z,6.47
2023-04-09T14:35:53.322Z,7.05
2023-04-09T14:38:19.848Z,6.55
2023-04-09T14:40:46.381Z,7.78
2023-04-09T14:43:12.869Z,7.47
2023-04-09T14:45:39.416Z,7.10
2023-04-09T14:48:05.944Z,7.63
2023-04-09T14:50:33.875Z,8.05
2023-04-09T14:53:01.470Z,6.35
2023-04-09T14:55:28.300Z,7.32
2023-04-09T14:57:55.211Z,5.80
2023-04-09T15:00:21.906Z,6.15
2023-04-09T15:02:48.789Z,7.28
2023-04-09T15:05:16.049Z,8.60
2023-04-09T15:07:43.650Z,6.60
2023-04-09T15:10:10.832Z,6.47
2023-04-09T15:12:37.249Z,6.03
2023-04-09T15:15:08.519Z,5.82
2023-04-09T15:17:35.376Z,5.50
2023-04-09T15:20:02.024Z,6.50
2023-04-09T15:22:28.457Z,6.50
2023-04-09T15:24:54.896Z,6.10
2023-04-09T15:27:21.388Z,5.18
2023-04-09T15:29:47.782Z,6.90
2023-04-09T15:32:14.220Z,7.28
2023-04-09T15:34:40.857Z,8.13
2023-04-09T15:37:07.440Z,8.18
2023-04-09T15:39:35.008Z,5.40
2023-04-09T15:42:01.958Z,7.22
2023-04-09T15:44:28.918Z,5.65
2023-04-09T15:46:56.012Z,5.40
2023-04-09T15:49:23.185Z,8.20
2023-04-09T15:51:49.870Z,7.38
2023-04-09T15:54:16.500Z,6.68
2023-04-09T15:56:42.966Z,5.07
2023-04-09T15:59:09.793Z,7.57
2023-04-09T16:01:37.064Z,5.38
2023-04-09T16:04:04.973Z,7.10
2023-04-09T16:06:31.900Z,5.43
2023-04-09T16:08:58.517Z,7.00
2023-04-09T16:11:25.014Z,5.75
2023-04-09T16:13:52.366Z,5.72
2023-04-09T16:16:19.261Z,6.70
2023-04-09T16:18:45.962Z,4.70
2023-04-09T16:21:12.574Z,8.20
2023-04-09T16:23:39.741Z,6.60
2023-04-09T16:26:06.941Z,5.75
2023-04-09T16:28:33.772Z,5.82
2023-04-09T16:31:00.373Z,4.90
2023-04-09T16:33:27.059Z,4.90
2023-04-09T16:35:53.597Z,4.53
2023-04-09T16:38:20.147Z,5.72
2023-04-09T16:40:46.903Z,6.00
2023-04-09T16:43:13.478Z,8.30
2023-04-09T16:45:40.136Z,6.95
2023-04-09T16:48:11.901Z,4.68
2023-04-09T16:50:39.852Z,4.53
2023-04-09T16:53:06.564Z,5.82
2023-04-09T16:55:37.124Z,6.53
2023-04-09T16:58:03.576Z,5.32
2023-04-09T17:00:30.043Z,6.13
2023-04-09T17:02:57.582Z,5.95
2023-04-09T17:05:24.471Z,5.15
2023-04-09T17:07:52.334Z,6.40
2023-04-09T17:10:19.302Z,7.63
2023-04-09T17:12:45.876Z,5.32
2023-04-09T17:15:12.670Z,6.05
2023-04-09T17:17:39.159Z,6.60
2023-04-09T17:20:06.531Z,5.25
2023-04-09T17:22:34.974Z,6.18
2023-04-09T17:25:01.824Z,6.05
2023-04-09T17:27:28.266Z,7.07
2023-04-09T17:29:54.857Z,5.68
2023-04-09T17:32:21.289Z,5.35
2023-04-09T17:34:51.305Z,5.18
2023-04-09T17:37:18.571Z,5.47
2023-04-09T17:39:44.977Z,7.07
2023-04-09T17:42:14.557Z,6.55
2023-04-09T17:44:43.625Z,6.10
2023-04-09T17:47:11.545Z,6.03
2023-04-09T17:49:37.977Z,5.47
2023-04-09T17:52:04.373Z,5.53
2023-04-09T17:54:38.004Z,6.63
2023-04-09T17:57:07.139Z,6.55
2023-04-09T17:59:34.664Z,5.28
2023-04-09T18:02:01.291Z,5.32
2023-04-09T18:04:28.022Z,5.72
2023-04-09T18:06:56.003Z,7.70
2023-04-09T18:09:22.464Z,6.30
2023-04-09T18:11:49.155Z,5.28
2023-04-09T18:14:15.763Z,4.60
2023-04-09T18:16:42.222Z,4.53
2023-04-09T18:19:08.637Z,4.63
2023-04-09T18:21:38.142Z,5.13
2023-04-09T18:24:04.822Z,7.63
2023-04-09T18:26:33.319Z,6.22
2023-04-09T18:29:01.164Z,5.20
2023-04-09T18:31:28.182Z,8.88
2023-04-09T18:33:54.722Z,6.75
2023-04-09T18:36:21.361Z,5.80
2023-04-09T18:38:47.782Z,5.93
2023-04-09T18:41:22.355Z,5.00
2023-04-09T18:43:48.775Z,5.35
2023-04-09T18:46:15.314Z,5.72
2023-04-09T18:48:43.325Z,8.00
2023-04-09T18:51:10.570Z,6.40
2023-04-09T18:53:37.137Z,6.95
2023-04-09T18:56:03.834Z,5.75
2023-04-09T18:58:30.233Z,8.05
2023-04-09T19:00:56.856Z,5.43
2023-04-09T19:03:23.861Z,6.82
2023-04-09T19:05:51.641Z,5.80
2023-04-09T19:08:18.047Z,6.65
2023-04-09T19:10:47.340Z,9.00
2023-04-09T19:13:13.731Z,5.78
2023-04-09T19:15:40.130Z,6.65
2023-04-09T19:18:06.680Z,9.52
2023-04-09T19:20:33.187Z,11.05
2023-04-09T19:22:59.799Z,8.70
2023-04-09T19:25:26.273Z,6.97
2023-04-09T19:27:54.193Z,8.75
2023-04-09T19:30:21.179Z,5.05
2023-04-09T19:32:47.611Z,5.57
2023-04-09T19:35:14.077Z,4.97
2023-04-09T19:37:40.681Z,4.03
2023-04-09T19:40:07.874Z,2.67
2023-04-09T19:42:34.587Z,4.13
2023-04-09T19:45:01.065Z,3.65
2023-04-09T19:47:27.959Z,3.25
2023-04-09T19:49:54.679Z,5.50
2023-04-09T19:52:21.434Z,3.67
2023-04-09T19:54:48.018Z,4.18
2023-04-09T19:57:15.152Z,5.40
2023-04-09T19:59:41.590Z,5.63
2023-04-09T20:02:08.152Z,5.65
2023-04-09T20:04:34.661Z,4.55
2023-04-09T20:07:01.236Z,8.55
2023-04-09T20:09:29.024Z,7.15
2023-04-09T20:11:55.533Z,4.97
2023-04-09T20:14:22.004Z,7.10
2023-04-09T20:16:48.504Z,6.40
2023-04-09T20:19:15.015Z,8.63
2023-04-09T20:21:43.479Z,5.82
2023-04-09T20:24:10.226Z,6.25
2023-04-09T20:26:36.884Z,5.82
2023-04-09T20:29:03.394Z,5.32
2023-04-09T20:31:31.707Z,4.88
2023-04-09T20:33:58.242Z,7.82
2023-04-09T20:36:24.668Z,5.35
2023-04-09T20:38:51.241Z,5.78
2023-04-09T20:41:18.050Z,5.90
2023-04-09T20:43:44.480Z,6.10
2023-04-09T20:46:11.923Z,4.90
2023-04-09T20:48:38.462Z,8.77
2023-04-09T20:51:10.995Z,6.13
2023-04-09T20:53:38.427Z,7.72
2023-04-09T20:56:06.266Z,10.77
2023-04-09T20:58:33.614Z,6.78
2023-04-09T21:01:09.251Z,6.53
2023-04-09T21:03:40.130Z,5.13
2023-04-09T21:06:08.193Z,6.20
2023-04-09T21:08:34.947Z,7.72
2023-04-09T21:11:02.236Z,5.47
2023-04-09T21:13:53.230Z,6.78
2023-04-09T21:16:21.479Z,10.02
2023-04-09T21:18:49.390Z,7.97
2023-04-09T21:21:16.792Z,8.77
2023-04-09T21:23:43.628Z,9.02
2023-04-09T21:26:11.502Z,11.45
2023-04-09T21:28:39.275Z,7.57
2023-04-09T21:31:06.127Z,8.27
2023-04-09T21:33:32.965Z,7.95
2023-04-09T21:35:59.449Z,9.75
2023-04-09T21:38:26.208Z,8.32
2023-04-09T21:40:52.780Z,5.78
2023-04-09T21:43:19.495Z,8.90
2023-04-09T21:45:46.344Z,7.05
2023-04-09T21:48:13.727Z,6.57
2023-04-09T21:50:40.240Z,8.38
2023-04-09T21:53:07.051Z,6.72
2023-04-09T21:55:36.425Z,8.52
2023-04-09T21:58:03.807Z,6.15
2023-04-09T22:00:30.863Z,7.00
2023-04-09T22:03:01.981Z,6.85
2023-04-09T22:07:56.013Z,7.53
2023-04-09T22:10:22.658Z,9.20
2023-04-09T22:12:50.091Z,8.40
2023-04-09T22:15:16.987Z,8.25
2023-04-09T22:17:43.896Z,7.03
2023-04-09T22:20:10.646Z,7.30
2023-04-09T22:22:37.710Z,6.75
2023-04-09T22:25:06.790Z,7.60
2023-04-09T22:27:33.939Z,6.97
2023-04-09T22:30:00.366Z,9.05
2023-04-09T22:32:26.823Z,8.02
2023-04-09T22:34:53.525Z,7.90
2023-04-09T22:37:20.092Z,8.18
2023-04-09T22:39:46.502Z,7.18
2023-04-09T22:42:12.874Z,7.50
2023-04-09T22:44:39.575Z,8.55
2023-04-09T22:47:06.097Z,7.75
2023-04-09T22:49:32.501Z,7.72
2023-04-09T22:51:58.877Z,7.63
2023-04-09T22:54:25.396Z,7.75
2023-04-09T22:56:51.822Z,8.15
2023-04-09T22:59:19.962Z,7.78
2023-04-09T23:01:47.863Z,10.20
2023-04-09T23:04:15.055Z,7.00
2023-04-09T23:06:41.631Z,9.00
2023-04-09T23:09:08.050Z,8.43
2023-04-09T23:11:36.371Z,7.30
2023-04-09T23:14:02.837Z,7.30
2023-04-09T23:16:29.379Z,6.50
2023-04-09T23:18:55.931Z,6.57
2023-04-09T23:21:22.606Z,6.80
2023-04-09T23:23:49.012Z,7.10
2023-04-09T23:26:15.477Z,7.05
2023-04-09T23:28:41.857Z,8.18
2023-04-09T23:31:08.462Z,7.22
2023-04-09T23:33:34.947Z,8.15
2023-04-09T23:36:01.377Z,9.40
2023-04-09T23:38:28.157Z,6.68
2023-04-09T23:40:54.625Z,7.38
2023-04-09T23:43:20.998Z,7.60
2023-04-09T23:45:49.727Z,6.72
2023-04-09T23:48:16.600Z,7.22
2023-04-09T23:50:42.996Z,6.35
2023-04-09T23:53:09.418Z,9.25
2023-04-09T23:55:40.991Z,10.75
2023-04-09T23:58:08.340Z,6.93
